Barreirinhas, Brazil
Current Conditions -  °F | °C
As of 9:00 AM on Sunday 25 Jan 2015 (Local Time) from SBPB Reporting Station
Few Clouds Few Clouds  
Wind Chill: 86°   Ceiling: Unl
Heat Index: 93°   Visibility: 6mi
Dew Point: 73°   Wind: 20mph
Humidity: 66%   Direction: 100°E
Pressure: 29.88"   Gusts: NA
Location:  2.75°S, 42.83°W
Report Text: SBPB 251200Z 10017KT 9999 FEW017 30/23 Q1012
Loading
Personal Weather Stations






























Interactive Weather Map New forecast layout! Learn more

10-Day Weather Forecast

Advertisements
Track Severe Weather on mobile